Time;durP1;ratioP1;P1;durP2;ratioP2;P2;SDS_P1;SDS_P2;PMS_P1;PMS_P2;Temp;Humidity;BMP_temperature;BMP_pressure;BME280_temperature;BME280_humidity;BME280_pressure;Samples;Min_cycle;Max_cycle;Signal;HPM_P1;HPM_P2
2021/08/12 00:01:03;;;;;;;0.20;0.20;;;19.70;99.90;;;;;;5089913;28;20206;-72
2021/08/12 00:03:29;;;;;;;0.38;0.38;;;19.20;99.90;;;;;;5071835;28;20686;-71
2021/08/12 00:05:55;;;;;;;1.13;1.13;;;19.00;99.90;;;;;;5089710;28;20160;-72
2021/08/12 00:08:21;;;;;;;0.65;0.60;;;19.10;99.90;;;;;;5072027;28;20164;-71
2021/08/12 00:10:50;;;;;;;0.40;0.40;;;19.40;99.90;;;;;;5089672;28;20267;-71
2021/08/12 00:13:20;;;;;;;1.25;0.30;;;19.40;99.90;;;;;;5089742;28;20160;-71
2021/08/12 00:15:47;;;;;;;0.75;0.75;;;19.40;99.90;;;;;;5089727;28;20173;-71
2021/08/12 00:18:13;;;;;;;0.45;0.45;;;19.30;99.90;;;;;;5071512;28;20168;-72
2021/08/12 00:20:40;;;;;;;0.28;0.28;;;19.40;99.90;;;;;;5089574;28;20304;-73
2021/08/12 00:23:06;;;;;;;0.20;0.20;;;18.80;99.90;;;;;;5089446;28;20179;-72
2021/08/12 00:25:32;;;;;;;1.60;1.30;;;18.50;99.90;;;;;;5071098;28;20223;-72
2021/08/12 00:27:58;;;;;;;2.08;1.15;;;18.70;99.90;;;;;;5071161;28;20219;-71
2021/08/12 00:30:24;;;;;;;0.10;0.10;;;18.60;99.90;;;;;;5071178;28;20532;-71
2021/08/12 00:32:50;;;;;;;0.15;0.10;;;18.30;99.90;;;;;;5089274;28;20161;-72
2021/08/12 00:35:16;;;;;;;0.40;0.40;;;18.10;99.90;;;;;;5070723;28;20160;-72
2021/08/12 00:37:42;;;;;;;0.77;0.57;;;18.10;99.90;;;;;;5089094;28;20164;-72
2021/08/12 00:40:09;;;;;;;0.22;0.22;;;18.10;99.90;;;;;;5089005;28;20159;-71
2021/08/12 00:42:35;;;;;;;0.73;0.73;;;18.20;99.90;;;;;;5089124;28;20171;-71
2021/08/12 00:45:00;;;;;;;0.52;0.52;;;18.40;99.90;;;;;;5088968;28;20164;-72
2021/08/12 00:47:27;;;;;;;0.38;0.38;;;18.50;99.90;;;;;;5070992;28;20195;-72
2021/08/12 00:49:53;;;;;;;0.20;0.20;;;18.70;99.90;;;;;;5088846;28;20243;-71
2021/08/12 00:52:21;;;;;;;0.50;0.50;;;18.80;99.90;;;;;;5070938;28;20206;-71
2021/08/12 00:54:47;;;;;;;0.25;0.25;;;18.80;99.90;;;;;;5088892;28;20156;-71
2021/08/12 00:57:13;;;;;;;0.17;0.10;;;18.60;99.90;;;;;;5088924;28;20156;-72
2021/08/12 00:59:40;;;;;;;0.77;0.63;;;18.70;99.90;;;;;;5088942;28;20612;-72
2021/08/12 01:02:11;;;;;;;0.50;0.50;;;19.00;99.90;;;;;;5088789;28;20191;-73
2021/08/12 01:04:44;;;;;;;0.20;0.20;;;19.10;99.90;;;;;;5088883;28;20624;-71
2021/08/12 01:07:16;;;;;;;0.30;0.30;;;19.00;99.90;;;;;;5088684;28;20187;-72
2021/08/12 01:10:19;;;;;;;2.35;1.08;;;19.10;99.90;;;;;;5088591;28;20183;-71
2021/08/12 01:12:57;;;;;;;0.22;0.22;;;19.00;99.90;;;;;;5088521;28;20171;-72
2021/08/12 01:15:33;;;;;;;0.20;0.20;;;19.10;99.90;;;;;;5088648;28;20160;-72
2021/08/12 01:18:23;;;;;;;0.60;0.60;;;19.10;99.90;;;;;;5088810;28;20223;-72
2021/08/12 01:21:26;;;;;;;0.40;0.40;;;19.00;99.90;;;;;;5066465;28;20263;-72
2021/08/12 01:24:00;;;;;;;0.55;0.45;;;19.10;99.90;;;;;;5088629;28;20168;-72
2021/08/12 01:26:29;;;;;;;0.30;0.30;;;19.30;99.90;;;;;;5088515;28;20184;-72
2021/08/12 01:28:56;;;;;;;0.10;0.10;;;19.30;99.90;;;;;;5070506;28;20164;-71
2021/08/12 01:31:46;;;;;;;0.63;0.63;;;19.20;99.90;;;;;;5070172;28;20195;-72
2021/08/12 01:34:37;;;;;;;0.05;0.05;;;19.30;99.90;;;;;;5088466;28;20156;-72
2021/08/12 01:37:03;;;;;;;0.68;0.68;;;19.20;99.90;;;;;;5070278;28;20238;-72
2021/08/12 01:39:31;;;;;;;0.17;0.17;;;19.10;99.90;;;;;;5088387;28;20188;-71
2021/08/12 01:41:58;;;;;;;0.20;0.20;;;18.90;99.90;;;;;;5088228;28;20191;-72
2021/08/12 01:44:26;;;;;;;0.28;0.28;;;18.80;99.90;;;;;;5088286;28;20192;-72
2021/08/12 01:46:53;;;;;;;0.32;0.32;;;18.80;99.90;;;;;;5070295;28;20206;-72
2021/08/12 01:49:21;;;;;;;1.45;0.93;;;18.70;99.90;;;;;;5092341;28;20197;-72
2021/08/12 01:51:50;;;;;;;0.25;0.25;;;18.80;99.90;;;;;;5092292;28;20221;-71
2021/08/12 01:54:17;;;;;;;2.60;2.22;;;19.00;99.90;;;;;;5074238;28;20160;-71
2021/08/12 01:56:44;;;;;;;5.68;0.77;;;19.10;99.90;;;;;;5092382;28;20240;-72
2021/08/12 01:59:12;;;;;;;0.10;0.10;;;19.20;99.90;;;;;;5092426;28;20164;-72
2021/08/12 02:01:38;;;;;;;0.20;0.20;;;19.20;99.90;;;;;;5090215;28;20233;-72
2021/08/12 02:04:04;;;;;;;0.20;0.20;;;19.20;99.90;;;;;;5092212;28;20168;-72
2021/08/12 02:06:36;;;;;;;0.10;0.10;;;19.30;99.90;;;;;;5092111;28;20205;-72
2021/08/12 02:09:03;;;;;;;0.30;0.30;;;19.10;99.90;;;;;;5092051;28;20172;-72
2021/08/12 02:11:32;;;;;;;0.00;0.00;;;19.10;99.90;;;;;;5073907;28;20192;-72
2021/08/12 02:13:58;;;;;;;0.10;0.10;;;19.20;99.90;;;;;;5073899;28;20172;-73
2021/08/12 02:16:24;;;;;;;0.47;0.47;;;19.20;99.90;;;;;;5073926;28;20239;-72
2021/08/12 02:18:50;;;;;;;0.50;0.50;;;19.20;99.90;;;;;;5092024;28;20159;-72
2021/08/12 02:21:47;;;;;;;0.65;0.43;;;19.20;99.90;;;;;;5091924;28;20281;-73
2021/08/12 02:24:27;;;;;;;0.75;0.75;;;19.20;99.90;;;;;;5075129;28;20207;-72
2021/08/12 02:27:01;;;;;;;1.95;0.85;;;19.30;99.90;;;;;;5091763;28;20195;-73
2021/08/12 02:29:32;;;;;;;0.28;0.28;;;19.30;99.90;;;;;;5091304;28;20187;-72
2021/08/12 02:32:02;;;;;;;0.70;0.70;;;19.30;99.90;;;;;;5073911;28;20171;-71
2021/08/12 02:34:29;;;;;;;0.38;0.38;;;19.20;99.90;;;;;;5091978;28;20186;-71
2021/08/12 02:36:57;;;;;;;0.30;0.30;;;19.20;99.90;;;;;;5090414;28;20148;-71
2021/08/12 02:39:27;;;;;;;0.22;0.22;;;19.20;99.90;;;;;;5091245;28;20224;-70
2021/08/12 02:41:54;;;;;;;0.45;0.45;;;19.20;99.90;;;;;;5091560;28;20160;-73
2021/08/12 02:44:21;;;;;;;0.10;0.10;;;19.20;99.90;;;;;;5091632;28;20171;-72
2021/08/12 02:46:49;;;;;;;0.10;0.10;;;19.20;99.90;;;;;;5091513;28;20199;-71
2021/08/12 02:49:15;;;;;;;0.40;0.40;;;19.20;99.90;;;;;;5091363;28;20160;-74
2021/08/12 02:51:42;;;;;;;0.30;0.30;;;19.20;99.90;;;;;;5091472;28;20156;-71
2021/08/12 02:54:10;;;;;;;0.47;0.47;;;19.20;99.90;;;;;;5091403;28;20188;-73
2021/08/12 02:56:37;;;;;;;0.52;0.52;;;19.20;99.90;;;;;;5073272;28;20291;-72
2021/08/12 02:59:05;;;;;;;0.30;0.30;;;19.10;99.90;;;;;;5090984;28;20163;-71
2021/08/12 03:01:35;;;;;;;0.00;0.00;;;19.20;99.90;;;;;;5073173;28;20172;-74
2021/08/12 03:04:02;;;;;;;0.55;0.55;;;19.10;99.90;;;;;;5091192;28;20160;-72
2021/08/12 03:06:29;;;;;;;2.60;1.92;;;18.90;99.90;;;;;;5090925;28;20200;-71
2021/08/12 03:08:56;;;;;;;0.47;0.47;;;18.80;99.90;;;;;;5073159;28;20184;-73
2021/08/12 03:11:22;;;;;;;0.10;0.10;;;18.80;99.90;;;;;;5091181;28;20183;-71
2021/08/12 03:13:50;;;;;;;0.45;0.25;;;18.90;99.90;;;;;;5090927;28;20156;-71
2021/08/12 03:16:16;;;;;;;0.20;0.20;;;18.80;99.90;;;;;;5072899;28;20202;-72
2021/08/12 03:18:43;;;;;;;0.47;0.47;;;18.60;99.90;;;;;;5091013;28;20160;-71
2021/08/12 03:21:11;;;;;;;0.65;0.50;;;18.70;99.90;;;;;;5072725;28;20227;-71
2021/08/12 03:23:38;;;;;;;1.55;1.08;;;18.80;99.90;;;;;;5090883;28;20183;-70
2021/08/12 03:26:05;;;;;;;0.20;0.20;;;18.90;99.90;;;;;;5069194;28;20229;-70
2021/08/12 03:28:31;;;;;;;0.22;0.22;;;18.80;99.90;;;;;;5070740;28;20157;-70
2021/08/12 03:30:58;;;;;;;0.50;0.30;;;18.80;99.90;;;;;;5070779;28;20149;-71
2021/08/12 03:33:25;;;;;;;0.50;0.50;;;18.80;99.90;;;;;;5070929;28;20153;-72
2021/08/12 03:35:52;;;;;;;0.20;0.20;;;18.50;99.90;;;;;;5069008;28;20197;-72
2021/08/12 03:38:20;;;;;;;0.65;0.65;;;18.40;99.90;;;;;;5070260;28;20165;-72
2021/08/12 03:40:48;;;;;;;0.63;0.52;;;18.20;99.90;;;;;;5070215;28;20157;-71
2021/08/12 03:43:15;;;;;;;0.10;0.10;;;18.40;99.90;;;;;;5070096;28;20256;-72
2021/08/12 03:45:41;;;;;;;1.17;1.08;;;18.60;99.90;;;;;;5070276;28;20220;-72
2021/08/12 03:48:07;;;;;;;0.38;0.38;;;18.80;99.90;;;;;;5068856;28;20200;-72
2021/08/12 03:50:33;;;;;;;0.28;0.28;;;18.60;99.90;;;;;;5070086;28;20219;-72
2021/08/12 03:52:59;;;;;;;1.80;1.35;;;18.70;99.90;;;;;;5070181;28;20164;-72
2021/08/12 03:55:25;;;;;;;0.22;0.22;;;18.80;99.90;;;;;;5070172;28;20219;-74
2021/08/12 03:57:51;;;;;;;0.20;0.20;;;18.80;99.90;;;;;;5068664;28;20173;-71
2021/08/12 04:00:17;;;;;;;0.52;0.52;;;18.80;99.90;;;;;;5069911;28;20164;-71
2021/08/12 04:02:43;;;;;;;0.60;0.30;;;18.80;99.90;;;;;;5068501;28;20626;-73
2021/08/12 04:05:10;;;;;;;1.95;1.85;;;18.80;99.90;;;;;;5069733;28;20203;-71
2021/08/12 04:07:36;;;;;;;0.20;0.20;;;18.90;99.90;;;;;;5069824;28;20184;-73
2021/08/12 04:10:04;;;;;;;0.88;0.88;;;18.90;99.90;;;;;;5067353;28;20161;-71
2021/08/12 04:12:31;;;;;;;4.78;1.00;;;18.70;99.90;;;;;;5068151;28;20179;-71
2021/08/12 04:14:57;;;;;;;0.15;0.15;;;18.50;99.90;;;;;;5068006;28;20199;-70
2021/08/12 04:17:24;;;;;;;0.77;0.77;;;18.60;99.90;;;;;;5069638;28;20156;-73
2021/08/12 04:19:50;;;;;;;0.65;0.65;;;18.30;99.90;;;;;;5069583;28;20156;-71
2021/08/12 04:22:16;;;;;;;0.30;0.30;;;18.50;99.90;;;;;;5068103;28;20169;-72
2021/08/12 04:24:42;;;;;;;0.25;0.25;;;18.70;99.90;;;;;;5075714;28;20212;-72
2021/08/12 04:27:07;;;;;;;0.52;0.40;;;18.90;99.90;;;;;;5071162;28;20231;-71
2021/08/12 04:29:34;;;;;;;0.63;0.63;;;18.60;99.90;;;;;;5089325;28;20216;-71
2021/08/12 04:32:00;;;;;;;0.80;0.80;;;18.70;99.90;;;;;;5089281;28;20168;-71
2021/08/12 04:34:26;;;;;;;0.25;0.25;;;18.90;99.90;;;;;;5089314;28;20233;-72
2021/08/12 04:36:52;;;;;;;0.68;0.40;;;19.10;99.90;;;;;;5088849;28;20217;-73
2021/08/12 04:39:17;;;;;;;0.77;0.77;;;19.10;99.90;;;;;;5088985;28;20174;-72
2021/08/12 04:41:43;;;;;;;0.22;0.22;;;19.30;99.90;;;;;;5071323;28;20187;-70
2021/08/12 04:44:09;;;;;;;0.20;0.15;;;19.30;99.90;;;;;;5071295;28;20179;-72
2021/08/12 04:46:35;;;;;;;0.52;0.52;;;19.40;99.90;;;;;;5070909;28;20234;-72
2021/08/12 04:49:02;;;;;;;2.42;1.25;;;19.70;99.90;;;;;;5089239;28;20160;-72
2021/08/12 04:51:28;;;;;;;0.88;0.88;;;20.10;99.90;;;;;;5088907;28;20148;-71
2021/08/12 04:53:54;;;;;;;0.30;0.30;;;20.30;99.90;;;;;;5088736;28;20170;-71
2021/08/12 04:56:20;;;;;;;0.30;0.30;;;20.50;99.90;;;;;;5088800;28;20199;-71
2021/08/12 04:58:46;;;;;;;0.13;0.13;;;20.70;99.90;;;;;;5088732;28;20633;-71
2021/08/12 05:01:12;;;;;;;2.05;0.40;;;20.80;99.90;;;;;;5088736;28;20182;-70
2021/08/12 05:03:38;;;;;;;0.30;0.30;;;20.90;99.90;;;;;;5088770;28;20164;-71
2021/08/12 05:06:05;;;;;;;0.88;0.75;;;21.00;99.90;;;;;;5088469;28;20674;-72
2021/08/12 05:08:31;;;;;;;0.77;0.77;;;21.30;99.90;;;;;;5088753;28;20159;-71
2021/08/12 05:10:57;;;;;;;0.32;0.30;;;21.40;99.90;;;;;;5088728;28;20160;-70
2021/08/12 05:13:24;;;;;;;1.65;1.58;;;21.30;99.90;;;;;;5070361;28;20179;-72
2021/08/12 05:15:50;;;;;;;14.50;1.88;;;21.50;99.90;;;;;;5070248;28;20191;-71
2021/08/12 05:18:15;;;;;;;4.28;2.30;;;22.00;99.90;;;;;;5088230;28;20202;-70
2021/08/12 05:20:41;;;;;;;0.32;0.32;;;22.00;99.90;;;;;;5069925;28;20182;-71
2021/08/12 05:23:07;;;;;;;2.47;1.30;;;21.80;99.90;;;;;;5070182;28;20179;-71
2021/08/12 05:25:33;;;;;;;0.52;0.52;;;21.60;99.90;;;;;;5087929;28;20233;-72
2021/08/12 05:27:59;;;;;;;3.20;1.13;;;21.30;99.90;;;;;;5070005;28;20202;-71
2021/08/12 05:30:25;;;;;;;0.22;0.22;;;21.60;99.90;;;;;;5070158;28;20186;-73
2021/08/12 05:32:51;;;;;;;0.10;0.10;;;21.90;99.90;;;;;;5088396;28;20152;-70
2021/08/12 05:35:17;;;;;;;0.25;0.25;;;22.40;99.90;;;;;;5088072;28;20191;-71
2021/08/12 05:37:43;;;;;;;0.63;0.63;;;22.80;99.90;;;;;;5069687;28;20227;-70
2021/08/12 05:40:10;;;;;;;0.60;0.52;;;22.90;99.90;;;;;;5088030;28;20167;-72
2021/08/12 05:42:36;;;;;;;2.50;1.48;;;23.30;99.90;;;;;;5088100;28;20227;-74
2021/08/12 05:45:02;;;;;;;1.13;1.05;;;23.80;99.90;;;;;;5069564;28;20201;-72
2021/08/12 05:47:28;;;;;;;0.52;0.52;;;23.50;99.90;;;;;;5087660;28;20651;-71
2021/08/12 05:49:54;;;;;;;0.77;0.30;;;23.50;99.90;;;;;;5087795;28;20182;-71
2021/08/12 05:52:19;;;;;;;0.40;0.40;;;24.10;99.90;;;;;;5087543;28;20205;-72
2021/08/12 05:54:45;;;;;;;16.33;1.23;;;24.30;99.90;;;;;;5087873;28;20162;-71
2021/08/12 05:57:11;;;;;;;0.40;0.40;;;23.70;99.90;;;;;;5087728;28;20160;-72
2021/08/12 05:59:37;;;;;;;0.52;0.52;;;23.40;99.90;;;;;;5087940;28;20211;-70
2021/08/12 06:02:03;;;;;;;2.50;2.08;;;23.70;99.90;;;;;;5087886;28;20163;-70
2021/08/12 06:04:29;;;;;;;0.88;0.88;;;24.10;99.90;;;;;;5087853;28;20160;-70
2021/08/12 06:06:55;;;;;;;0.68;0.57;;;24.40;99.90;;;;;;5087837;28;20247;-70
2021/08/12 06:09:21;;;;;;;1.95;1.38;;;25.10;99.90;;;;;;5087829;28;20252;-72
2021/08/12 06:11:47;;;;;;;0.98;0.57;;;24.80;99.90;;;;;;5087826;28;20639;-72
2021/08/12 06:14:13;;;;;;;1.15;1.08;;;24.50;99.90;;;;;;5069666;28;20164;-72
2021/08/12 06:16:39;;;;;;;0.22;0.22;;;24.90;99.90;;;;;;5069624;28;20167;-71
2021/08/12 06:19:05;;;;;;;0.90;0.47;;;25.20;99.90;;;;;;5087654;28;20201;-72
2021/08/12 06:21:31;;;;;;;1.38;0.85;;;24.70;99.90;;;;;;5088096;28;20187;-71
2021/08/12 06:23:57;;;;;;;0.57;0.57;;;24.10;99.90;;;;;;5087407;28;20179;-71
2021/08/12 06:26:22;;;;;;;0.50;0.50;;;24.60;99.90;;;;;;5087765;28;20191;-72
2021/08/12 06:28:50;;;;;;;0.73;0.73;;;25.60;99.90;;;;;;5069643;28;20196;-71
2021/08/12 06:31:17;;;;;;;2.33;0.50;;;25.80;99.90;;;;;;5087660;28;20148;-71
2021/08/12 06:33:42;;;;;;;0.30;0.30;;;24.70;99.90;;;;;;5071055;28;20167;-71
2021/08/12 06:36:09;;;;;;;1.90;1.23;;;24.70;99.90;;;;;;5091222;28;20159;-71
2021/08/12 06:38:34;;;;;;;1.33;0.57;;;25.30;99.90;;;;;;5091236;28;20191;-71
2021/08/12 06:41:00;;;;;;;1.17;0.85;;;25.70;99.90;;;;;;5091189;28;20185;-70
2021/08/12 06:43:26;;;;;;;1.30;0.68;;;25.20;99.90;;;;;;5072989;28;20174;-71
2021/08/12 06:45:52;;;;;;;0.88;0.85;;;26.10;99.90;;;;;;5072998;28;20171;-71
2021/08/12 06:48:18;;;;;;;0.70;0.60;;;26.60;99.90;;;;;;5073124;28;20211;-72
2021/08/12 06:50:44;;;;;;;1.20;0.50;;;27.00;99.90;;;;;;5072768;28;20167;-71
2021/08/12 06:53:10;;;;;;;1.48;0.77;;;27.20;99.90;;;;;;5090963;28;20163;-70
2021/08/12 06:55:37;;;;;;;4.25;0.80;;;27.30;99.90;;;;;;5090912;28;20160;-71
2021/08/12 06:58:04;;;;;;;3.13;2.35;;;27.40;99.90;;;;;;5090740;28;20222;-71
2021/08/12 07:00:30;;;;;;;0.40;0.32;;;27.40;99.90;;;;;;5090726;28;20183;-71
2021/08/12 07:02:56;;;;;;;0.75;0.75;;;26.50;99.90;;;;;;5090697;28;20163;-71
2021/08/12 07:05:22;;;;;;;0.80;0.80;;;26.60;99.90;;;;;;5072662;28;20175;-71
2021/08/12 07:07:48;;;;;;;0.30;0.30;;;26.40;99.90;;;;;;5090671;28;20207;-72
2021/08/12 07:10:15;;;;;;;0.35;0.35;;;27.10;99.90;;;;;;5072607;28;20182;-71
2021/08/12 07:12:40;;;;;;;1.52;1.20;;;27.40;99.90;;;;;;5090700;28;20163;-72
2021/08/12 07:15:07;;;;;;;0.50;0.50;;;27.70;99.90;;;;;;5072619;28;20661;-72
2021/08/12 07:17:35;;;;;;;0.45;0.45;;;28.20;99.90;;;;;;5072553;28;20182;-72
2021/08/12 07:20:05;;;;;;;0.35;0.30;;;28.60;99.90;;;;;;5090630;28;20159;-71
2021/08/12 07:22:31;;;;;;;0.40;0.20;;;28.80;99.90;;;;;;5090570;28;20152;-71
2021/08/12 07:24:59;;;;;;;0.20;0.20;;;28.80;99.90;;;;;;5090591;28;20227;-73
2021/08/12 07:27:25;;;;;;;0.75;0.75;;;28.50;99.90;;;;;;5072172;28;20268;-71
2021/08/12 07:29:51;;;;;;;0.73;0.60;;;27.90;99.90;;;;;;5090118;28;20499;-71
2021/08/12 07:32:17;;;;;;;0.52;0.52;;;28.00;99.90;;;;;;5090374;28;20527;-70
2021/08/12 07:34:43;;;;;;;0.32;0.32;;;28.30;99.90;;;;;;5072157;28;20159;-71
2021/08/12 07:37:09;;;;;;;0.35;0.35;;;28.80;99.90;;;;;;5090274;28;20219;-73
2021/08/12 07:39:35;;;;;;;1.00;1.00;;;29.10;99.90;;;;;;5090055;28;20756;-71
2021/08/12 07:42:01;;;;;;;0.10;0.10;;;28.90;99.90;;;;;;5090052;28;20187;-71
2021/08/12 07:44:27;;;;;;;5.15;1.80;;;28.40;99.90;;;;;;5071897;28;20171;-73
2021/08/12 07:46:53;;;;;;;0.20;0.20;;;29.10;99.90;;;;;;5089968;28;20179;-72
2021/08/12 07:49:18;;;;;;;0.75;0.75;;;29.10;99.90;;;;;;5071711;28;20583;-72
2021/08/12 07:51:44;;;;;;;1.02;0.50;;;28.80;99.90;;;;;;5071546;28;20222;-72
2021/08/12 07:54:10;;;;;;;0.15;0.15;;;29.00;99.90;;;;;;5090079;28;20170;-73
2021/08/12 07:56:36;;;;;;;0.52;0.52;;;28.80;99.90;;;;;;5071877;28;20167;-73
2021/08/12 07:59:02;;;;;;;4.95;1.20;;;28.50;99.90;;;;;;5089723;28;20195;-70
2021/08/12 08:01:28;;;;;;;0.68;0.68;;;28.20;99.90;;;;;;5089787;28;20170;-71
2021/08/12 08:03:56;;;;;;;0.55;0.55;;;28.40;99.90;;;;;;5089611;28;20164;-70
2021/08/12 08:06:21;;;;;;;0.50;0.50;;;28.20;99.90;;;;;;5071729;28;20253;-70
2021/08/12 08:08:47;;;;;;;0.90;0.90;;;28.40;99.90;;;;;;5089340;28;20183;-72
2021/08/12 08:11:16;;;;;;;0.30;0.30;;;28.60;99.90;;;;;;5089565;28;20187;-71
2021/08/12 08:13:43;;;;;;;0.60;0.57;;;28.40;99.90;;;;;;5089563;28;20152;-71
2021/08/12 08:16:08;;;;;;;0.57;0.57;;;27.90;99.90;;;;;;5089549;28;20182;-71
2021/08/12 08:18:34;;;;;;;0.25;0.13;;;28.20;99.90;;;;;;5071339;28;20250;-71
2021/08/12 08:21:00;;;;;;;0.95;0.30;;;28.10;99.90;;;;;;5089524;28;20163;-71
2021/08/12 08:23:26;;;;;;;0.10;0.10;;;27.60;99.90;;;;;;5071442;28;20160;-71
2021/08/12 08:25:52;;;;;;;0.10;0.10;;;27.90;99.90;;;;;;5067862;28;20250;-72
2021/08/12 08:28:18;;;;;;;0.77;0.77;;;28.50;99.90;;;;;;5067866;28;20207;-72
2021/08/12 08:30:44;;;;;;;0.20;0.20;;;29.00;99.90;;;;;;5069314;28;20172;-73
2021/08/12 08:33:11;;;;;;;0.75;0.75;;;28.90;99.90;;;;;;5067744;28;20236;-72
2021/08/12 08:35:38;;;;;;;0.52;0.52;;;28.70;99.90;;;;;;5069185;28;20144;-72
2021/08/12 08:38:04;;;;;;;0.28;0.28;;;28.40;99.90;;;;;;5067665;28;20211;-72
2021/08/12 08:40:31;;;;;;;1.02;0.57;;;28.50;99.90;;;;;;5068984;28;20164;-73
2021/08/12 08:42:57;;;;;;;1.02;0.40;;;28.40;99.90;;;;;;5069084;28;20165;-72
2021/08/12 08:45:28;;;;;;;0.22;0.17;;;28.60;99.90;;;;;;5067661;28;20218;-72
2021/08/12 08:47:56;;;;;;;0.63;0.63;;;28.80;99.90;;;;;;5068743;28;20286;-72
2021/08/12 08:50:25;;;;;;;0.55;0.55;;;29.40;99.90;;;;;;5067725;28;20160;-72
2021/08/12 08:52:52;;;;;;;5.13;0.70;;;29.30;99.90;;;;;;5068812;28;20160;-72
2021/08/12 08:55:22;;;;;;;0.20;0.20;;;29.20;99.90;;;;;;5068576;28;20156;-72
2021/08/12 08:57:50;;;;;;;0.75;0.75;;;28.10;99.90;;;;;;5068360;28;20198;-72
2021/08/12 09:00:17;;;;;;;0.32;0.32;;;28.40;99.90;;;;;;5067449;28;20168;-72
2021/08/12 09:02:48;;;;;;;0.30;0.25;;;28.70;99.90;;;;;;5054023;28;20207;-72
2021/08/12 09:05:15;;;;;;;0.00;0.00;;;29.00;99.90;;;;;;5060365;28;20165;-70
2021/08/12 09:07:42;;;;;;;0.40;0.30;;;28.70;99.90;;;;;;5054259;28;20275;-70
2021/08/12 09:10:10;;;;;;;0.47;0.47;;;28.60;99.90;;;;;;5067004;28;20161;-71
2021/08/12 09:12:36;;;;;;;0.30;0.30;;;28.60;99.90;;;;;;5056896;28;20252;-71
2021/08/12 09:15:12;;;;;;;0.13;0.13;;;29.00;99.90;;;;;;5046857;28;20215;-71
2021/08/12 09:17:39;;;;;;;0.10;0.10;;;29.00;99.90;;;;;;5047169;28;20210;-71
2021/08/12 09:20:16;;;;;;;0.47;0.47;;;29.00;99.90;;;;;;5050766;28;20531;-73
2021/08/12 09:23:04;;;;;;;0.65;0.65;;;28.80;99.90;;;;;;5066853;28;20200;-70
2021/08/12 09:25:48;;;;;;;0.50;0.50;;;28.50;99.90;;;;;;5081003;28;20234;-71
2021/08/12 09:28:15;;;;;;;0.55;0.52;;;29.10;99.90;;;;;;5087972;28;20187;-70
2021/08/12 09:31:01;;;;;;;0.77;0.73;;;29.70;99.90;;;;;;5088335;28;20151;-70
2021/08/12 09:33:39;;;;;;;0.40;0.38;;;29.20;99.90;;;;;;5066425;28;20203;-71
2021/08/12 09:36:36;;;;;;;4.70;0.52;;;29.30;99.90;;;;;;5088383;28;20194;-71
2021/08/12 09:39:11;;;;;;;0.70;0.70;;;29.20;99.90;;;;;;5068439;28;20598;-71
2021/08/12 09:41:57;;;;;;;0.75;0.60;;;29.40;99.90;;;;;;5067978;28;20162;-71
2021/08/12 09:44:32;;;;;;;0.60;0.60;;;29.50;99.90;;;;;;5049533;28;20191;-71
2021/08/12 09:47:01;;;;;;;0.40;0.40;;;30.00;99.90;;;;;;5067923;28;20206;-72
2021/08/12 09:49:37;;;;;;;0.38;0.38;;;29.70;99.90;;;;;;5068044;28;20156;-72
2021/08/12 09:52:15;;;;;;;0.50;0.50;;;30.10;99.90;;;;;;5067832;28;20238;-72
2021/08/12 09:54:41;;;;;;;0.30;0.30;;;30.60;99.90;;;;;;5066516;28;20202;-72
2021/08/12 09:57:15;;;;;;;4.50;1.20;;;30.50;99.90;;;;;;5067931;28;20220;-72
2021/08/12 09:59:51;;;;;;;0.50;0.50;;;30.60;99.90;;;;;;5067751;28;20186;-72
2021/08/12 10:02:17;;;;;;;3.88;0.95;;;31.00;99.90;;;;;;5067720;28;20166;-73
2021/08/12 10:04:44;;;;;;;0.63;0.63;;;31.50;99.90;;;;;;5059107;28;20218;-71
2021/08/12 10:07:39;;;;;;;0.10;0.10;;;31.00;99.90;;;;;;5067887;28;20195;-71
2021/08/12 10:10:11;;;;;;;0.10;0.10;;;30.90;99.90;;;;;;5071728;28;20164;-71
2021/08/12 10:12:42;;;;;;;0.82;0.77;;;30.90;99.90;;;;;;5085337;28;20528;-71
2021/08/12 10:15:11;;;;;;;1.25;0.77;;;30.90;99.90;;;;;;5091877;28;20174;-71
2021/08/12 10:17:41;;;;;;;0.88;0.88;;;31.30;99.90;;;;;;5091765;28;20210;-71
2021/08/12 10:20:10;;;;;;;2.67;0.65;;;31.50;99.90;;;;;;5091682;28;20182;-71
2021/08/12 10:22:39;;;;;;;1.23;0.45;;;31.30;99.90;;;;;;5073639;28;20292;-72
2021/08/12 10:25:06;;;;;;;0.35;0.30;;;31.60;99.90;;;;;;5091404;28;20244;-71
2021/08/12 10:27:33;;;;;;;0.52;0.52;;;31.30;99.90;;;;;;5073308;28;20223;-74
2021/08/12 10:30:00;;;;;;;1.48;0.57;;;32.00;99.90;;;;;;5091389;28;20158;-70
2021/08/12 10:32:27;;;;;;;0.00;0.00;;;32.10;99.90;;;;;;5091063;28;20190;-71
2021/08/12 10:34:53;;;;;;;0.00;0.00;;;33.00;99.90;;;;;;5073415;28;20168;-71
2021/08/12 10:37:19;;;;;;;0.52;0.47;;;32.50;99.90;;;;;;5091324;28;20178;-73
2021/08/12 10:39:45;;;;;;;0.20;0.20;;;32.50;99.90;;;;;;5071247;28;20165;-72
2021/08/12 10:42:12;;;;;;;0.30;0.30;;;32.70;99.90;;;;;;5071120;28;20164;-72
2021/08/12 10:44:38;;;;;;;0.40;0.40;;;32.40;99.90;;;;;;5053221;28;20191;-72
2021/08/12 10:47:04;;;;;;;0.98;0.55;;;32.10;99.90;;;;;;5070962;28;20215;-71
2021/08/12 10:49:34;;;;;;;0.20;0.20;;;32.70;99.90;;;;;;5053233;28;20172;-74
2021/08/12 10:52:10;;;;;;;0.73;0.57;;;31.90;99.90;;;;;;5053149;28;20168;-76
2021/08/12 10:54:41;;;;;;;0.30;0.30;;;30.90;99.90;;;;;;5071036;28;20278;-75
2021/08/12 10:57:20;;;;;;;0.20;0.17;;;30.60;99.90;;;;;;5071161;28;20239;-76
2021/08/12 10:59:48;;;;;;;0.57;0.57;;;30.10;99.90;;;;;;5070899;28;20223;-76
2021/08/12 11:02:41;;;;;;;0.80;0.73;;;29.90;99.90;;;;;;5052827;28;20175;-78
2021/08/12 11:05:08;;;;;;;2.47;0.82;;;30.60;99.90;;;;;;5078493;28;20343;-75
2021/08/12 11:07:39;;;;;;;0.28;0.28;;;31.70;99.90;;;;;;5072856;28;20192;-77
2021/08/12 11:10:12;;;;;;;1.45;1.13;;;32.10;99.90;;;;;;5090848;28;20179;-77
2021/08/12 11:13:05;;;;;;;0.30;0.30;;;33.00;99.90;;;;;;5090494;28;20198;-77
2021/08/12 11:15:37;;;;;;;0.55;0.55;;;33.00;99.90;;;;;;5070788;28;20255;-75
2021/08/12 11:18:04;;;;;;;0.20;0.20;;;33.90;99.90;;;;;;5090755;28;20171;-76
2021/08/12 11:20:39;;;;;;;0.30;0.30;;;34.90;99.90;;;;;;5072104;28;20179;-76
2021/08/12 11:23:20;;;;;;;0.57;0.57;;;34.40;99.90;;;;;;5090549;28;20217;-76
2021/08/12 11:26:04;;;;;;;3.53;0.95;;;34.30;99.90;;;;;;5071967;28;20254;-76
2021/08/12 11:28:39;;;;;;;1.65;0.60;;;34.30;99.90;;;;;;5072375;28;20195;-76
2021/08/12 11:31:09;;;;;;;0.40;0.40;;;34.40;99.90;;;;;;5069092;28;20167;-76
2021/08/12 11:33:48;;;;;;;2.53;0.75;;;34.50;99.90;;;;;;5077850;28;20191;-76
2021/08/12 11:36:23;;;;;;;0.32;0.22;;;33.30;99.90;;;;;;5080464;28;20203;-78
2021/08/12 11:39:02;;;;;;;0.30;0.30;;;33.10;99.90;;;;;;5088609;28;20594;-77
2021/08/12 11:41:39;;;;;;;0.30;0.30;;;34.30;99.90;;;;;;5089584;28;20174;-77
2021/08/12 11:44:15;;;;;;;0.55;0.43;;;34.70;99.90;;;;;;5089731;28;20163;-77
2021/08/12 11:46:42;;;;;;;0.30;0.30;;;34.40;99.90;;;;;;5090996;28;20264;-77
2021/08/12 11:49:18;;;;;;;0.25;0.25;;;34.70;99.90;;;;;;5096281;28;20159;-78
2021/08/12 11:51:45;;;;;;;0.30;0.30;;;33.90;99.90;;;;;;5072368;28;20192;-75
2021/08/12 11:54:22;;;;;;;0.32;0.32;;;33.00;99.90;;;;;;5107092;28;20222;-76
2021/08/12 11:56:51;;;;;;;0.65;0.63;;;33.10;99.90;;;;;;5087323;28;20202;-76
2021/08/12 11:59:27;;;;;;;0.25;0.25;;;33.00;99.90;;;;;;5088017;28;20230;-77
2021/08/12 12:01:53;;;;;;;0.30;0.30;;;33.90;99.90;;;;;;5082869;28;20250;-76
2021/08/12 12:04:20;;;;;;;0.43;0.43;;;34.90;99.90;;;;;;5087802;28;20224;-77
2021/08/12 12:06:48;;;;;;;0.63;0.52;;;34.30;99.90;;;;;;5091175;28;20198;-76
2021/08/12 12:09:26;;;;;;;0.20;0.10;;;34.40;99.90;;;;;;5075293;28;20168;-76
2021/08/12 12:12:09;;;;;;;0.47;0.45;;;33.60;99.90;;;;;;5076241;28;20851;-77
2021/08/12 12:14:37;;;;;;;0.52;0.52;;;34.40;99.90;;;;;;5075138;28;20258;-76
2021/08/12 12:17:18;;;;;;;1.10;0.80;;;34.50;99.90;;;;;;5088783;28;20203;-75
2021/08/12 12:20:12;;;;;;;0.40;0.32;;;34.00;99.90;;;;;;5086182;28;20202;-77
2021/08/12 12:22:40;;;;;;;0.25;0.25;;;32.70;99.90;;;;;;5089359;28;20639;-77
2021/08/12 12:25:10;;;;;;;0.43;0.43;;;31.90;99.90;;;;;;5087667;28;20293;-75
2021/08/12 12:27:36;;;;;;;0.20;0.20;;;30.70;99.90;;;;;;5092535;28;20226;-75
2021/08/12 12:30:05;;;;;;;0.10;0.10;;;30.00;99.90;;;;;;5083899;28;20156;-77
2021/08/12 12:32:31;;;;;;;0.43;0.43;;;29.80;99.90;;;;;;5092544;28;20208;-76
2021/08/12 12:34:57;;;;;;;0.22;0.22;;;29.80;99.90;;;;;;5074268;28;20175;-77
2021/08/12 12:37:24;;;;;;;2.53;1.63;;;29.80;99.90;;;;;;5102112;28;20539;-76
2021/08/12 12:39:51;;;;;;;0.30;0.30;;;29.60;99.90;;;;;;5073373;28;20266;-76
2021/08/12 12:42:18;;;;;;;0.43;0.38;;;29.50;99.90;;;;;;5100796;28;20170;-76
2021/08/12 12:45:16;;;;;;;0.85;0.85;;;29.60;99.90;;;;;;5082863;28;20258;-78
2021/08/12 12:47:42;;;;;;;2.75;0.47;;;29.70;99.90;;;;;;5014303;28;20220;-76
2021/08/12 12:50:08;;;;;;;0.50;0.50;;;29.60;99.90;;;;;;5022980;28;20181;-78
2021/08/12 12:52:35;;;;;;;0.30;0.30;;;29.60;99.90;;;;;;5010773;28;20554;-76
2021/08/12 12:55:01;;;;;;;0.30;0.30;;;29.50;99.90;;;;;;5035254;28;20173;-77
2021/08/12 12:57:34;;;;;;;0.10;0.10;;;29.20;99.90;;;;;;5016851;28;20185;-76